Victor, MT (59875)

4:12 PM MDT on August 04, 2015 (GMT -0600)
MSU - Western Ag Research Center | | Change Station
CLOSE
Current Station
Personal Weather Station
Location: Corvallis, MT
Elevation: 3596 ft
Nearby Weather Stations

Elev 3596 ft 46.33 °N, 114.08 °W | Updated 4 seconds ago

Partly Cloudy
Partly Cloudy
87.2 °F
Feels Like 85 °F
N
0.0
Wind Variable Wind from SSE
Gusts 7.0 mph

Today
High -- | Low -- °F
--% Chance of Precip.
Yesterday
High -- | Low -- °F
Precip. -- in
6:21 AM 9:03 PM
Waning Gibbous, 74% visible
Pressure 29.83 in
Visibility 10.0 miles
Clouds Scattered Clouds 10000 ft
Heat Index 85 °F
Dew Point 50 °F
Humidity 28%
Rainfall 0.00 in
Snow Depth Not available.
UV 6 out of 12
Pollen 6.30 out of 12
Air Quality Not available.
Flu Activity Not available.
METAR KMSO 042153Z VRB06KT 10SM SCT100 30/04 A2992 RMK AO2 SLP102 T03000044

More Conditions Fewer Conditions

Pressure 29.83 in
Visibility 10.0 miles
Clouds Scattered Clouds 10000 ft
Heat Index 85 °F
Dew Point 50 °F
Humidity 28%
Rainfall 0.00 in
Snow Depth Not available.
UV 6 out of 12
Pollen 6.30 out of 12
Air Quality Not available.
Flu Activity Not available.
METAR KMSO 042153Z VRB06KT 10SM SCT100 30/04 A2992 RMK AO2 SLP102 T03000044

More Conditions Fewer Conditions

10-Day Weather Forecast

×

Almanac

Astronomy

Aug. 04, 2015 Rise Set
Actual Time
Civil Twilight
Nautical Twilight
Astronomical Twilight
Moon
Length of Visible Light
Length of Day
Tomorrow will be .
, % of the Moon is Illuminated

Today's Extremes

State Highs State Lows

Community

WunderPhotos

Upload Photos

1,844,002 photos uploaded!

WunderBlogs® & News

Nearby

Air Quality

  Air Quality AQ Index Pollutant
Not available.

Snow Depth

Station Depth Elevation

Earthquake Activity

City Distance Mag. Time & Date
Minimum magnitude displayed is 2.5.

Coastal Water Temperatures

Place Temperature

Stations

Nearby Weather Stations

Station Location Temp. Windchill Dew Point Humidity Wind Precip. Elev Updated Type